createdAt,value
2023-05-06T00:01:14.914Z,100331.13
2023-05-06T00:11:22.941Z,100322.78
2023-05-06T00:21:27.081Z,100318.84
2023-05-06T00:31:32.313Z,100332.91
2023-05-06T00:41:35.968Z,100325.56
2023-05-06T00:51:41.191Z,100330.34
2023-05-06T01:01:44.973Z,100333.88
2023-05-06T01:11:56.355Z,100334.09
2023-05-06T01:22:03.365Z,100339.56
2023-05-06T01:32:40.417Z,100327.25
2023-05-06T01:42:48.494Z,100330.41
2023-05-06T01:52:59.866Z,100341.00
2023-05-06T02:03:03.655Z,100348.59
2023-05-06T02:13:08.815Z,100347.72
2023-05-06T02:23:13.112Z,100366.31
2023-05-06T02:33:18.238Z,100369.22
2023-05-06T02:43:23.091Z,100363.09
2023-05-06T02:53:28.063Z,100370.97
2023-05-06T03:03:31.699Z,100377.38
2023-05-06T03:13:36.754Z,100374.84
2023-05-06T03:23:41.479Z,100369.78
2023-05-06T03:33:46.593Z,100382.06
2023-05-06T03:43:50.564Z,100387.44
2023-05-06T03:53:56.458Z,100375.84
2023-05-06T04:04:00.148Z,100379.97
2023-05-06T04:14:05.550Z,100384.66
2023-05-06T04:24:09.366Z,100379.75
2023-05-06T04:34:15.127Z,100384.34
2023-05-06T04:44:19.408Z,100386.13
2023-05-06T04:54:24.583Z,100404.00
2023-05-06T05:04:28.205Z,100409.13
2023-05-06T05:14:33.317Z,100419.59
2023-05-06T05:24:37.180Z,100426.53
2023-05-06T05:34:42.144Z,100426.66
2023-05-06T05:44:45.750Z,100439.22
2023-05-06T05:54:50.861Z,100444.06
2023-05-06T06:04:54.551Z,100447.81
2023-05-06T06:14:59.545Z,100435.28
2023-05-06T06:25:03.130Z,100437.34
2023-05-06T06:35:09.277Z,100443.00
2023-05-06T06:45:14.629Z,100447.00
2023-05-06T06:55:19.714Z,100447.00
2023-05-06T07:05:23.812Z,100450.13
2023-05-06T07:15:31.068Z,100435.25
2023-05-06T07:25:35.343Z,100439.06
2023-05-06T07:35:40.365Z,100436.75
2023-05-06T07:45:44.198Z,100435.81
2023-05-06T07:55:49.262Z,100442.66
2023-05-06T08:05:53.496Z,100442.38
2023-05-06T08:15:58.864Z,100440.78
2023-05-06T08:26:02.915Z,100438.81
2023-05-06T08:36:08.830Z,100440.69
2023-05-06T08:46:12.654Z,100438.41
2023-05-06T08:56:18.839Z,100433.44
2023-05-06T09:06:22.586Z,100436.13
2023-05-06T09:16:31.996Z,100439.22
2023-05-06T09:26:37.572Z,100431.22
2023-05-06T09:36:45.393Z,100411.91
2023-05-06T09:46:49.616Z,100407.88
2023-05-06T09:56:58.817Z,100401.97
2023-05-06T10:07:05.039Z,100390.91
2023-05-06T10:17:13.196Z,100384.03
2023-05-06T10:27:24.524Z,100373.53
2023-05-06T10:37:32.029Z,100354.47
2023-05-06T10:48:09.992Z,100354.66
2023-05-06T10:58:17.385Z,100332.06
2023-05-06T11:08:24.877Z,100325.19
2023-05-06T11:18:45.557Z,100330.63
2023-05-06T11:28:51.345Z,100316.97
2023-05-06T11:38:59.697Z,100325.53
2023-05-06T11:49:03.488Z,100315.78
2023-05-06T11:59:08.585Z,100308.63
2023-05-06T12:09:13.456Z,100307.47
2023-05-06T12:19:19.018Z,100301.94
2023-05-06T12:29:23.051Z,100309.94
2023-05-06T12:39:35.966Z,100312.38
2023-05-06T12:49:48.513Z,100309.78
2023-05-06T12:59:53.870Z,100297.63
2023-05-06T13:09:57.593Z,100296.41
2023-05-06T13:20:05.052Z,100292.94
2023-05-06T13:30:10.662Z,100274.41
2023-05-06T13:40:16.127Z,100264.94
2023-05-06T13:50:19.887Z,100259.53
2023-05-06T14:00:25.108Z,100255.00
2023-05-06T14:10:28.884Z,100240.69
2023-05-06T14:20:34.215Z,100227.75
2023-05-06T14:30:37.969Z,100213.75
2023-05-06T14:40:42.918Z,100199.97
2023-05-06T14:50:46.526Z,100201.63
2023-05-06T15:00:51.546Z,100199.69
2023-05-06T15:10:55.325Z,100204.88
2023-05-06T15:21:01.547Z,100209.63
2023-05-06T15:31:05.488Z,100207.41
2023-05-06T15:41:11.095Z,100207.69
2023-05-06T15:51:14.867Z,100217.44
2023-05-06T16:01:23.782Z,100223.53
2023-05-06T16:11:39.060Z,100227.00
2023-05-06T16:21:43.987Z,100221.00
2023-05-06T16:31:47.791Z,100227.88
2023-05-06T16:41:52.815Z,100222.75
2023-05-06T16:51:57.126Z,100205.63
2023-05-06T17:02:02.379Z,100196.19
2023-05-06T17:12:07.362Z,100201.28
2023-05-06T17:22:12.480Z,100191.84
2023-05-06T17:32:16.304Z,100195.25
2023-05-06T17:42:21.490Z,100198.63
2023-05-06T17:52:26.739Z,100203.63
2023-05-06T18:02:31.947Z,100204.44
2023-05-06T18:12:35.940Z,100221.47
2023-05-06T18:22:42.767Z,100229.06
2023-05-06T18:32:47.740Z,100235.81
2023-05-06T18:42:56.526Z,100230.69
2023-05-06T18:53:00.322Z,100233.97
2023-05-06T19:03:05.490Z,100242.34
2023-05-06T19:13:09.320Z,100251.72
2023-05-06T19:23:14.346Z,100267.06
2023-05-06T19:33:18.555Z,100277.25
2023-05-06T19:43:24.449Z,100267.56
2023-05-06T19:53:28.361Z,100286.91
2023-05-06T20:03:34.001Z,100290.69
2023-05-06T20:13:37.737Z,100300.88
2023-05-06T20:23:42.793Z,100294.66
2023-05-06T20:33:46.569Z,100296.28
2023-05-06T20:43:53.255Z,100300.41
2023-05-06T20:54:00.985Z,100297.88
2023-05-06T21:04:07.318Z,100297.59
2023-05-06T21:14:11.583Z,100290.03
2023-05-06T21:24:16.938Z,100293.28
2023-05-06T21:34:20.743Z,100311.91
2023-05-06T21:44:26.006Z,100302.97
2023-05-06T21:54:31.445Z,100302.28
2023-05-06T22:04:36.891Z,100293.53
2023-05-06T22:14:41.718Z,100287.59
2023-05-06T22:24:48.373Z,100285.69
2023-05-06T22:34:52.321Z,100288.91
2023-05-06T22:44:59.423Z,100284.63
2023-05-06T22:55:03.097Z,100292.84
2023-05-06T23:05:09.327Z,100297.13
2023-05-06T23:15:13.481Z,100292.66
2023-05-06T23:25:18.739Z,100291.63
2023-05-06T23:35:22.372Z,100306.81
2023-05-06T23:45:27.781Z,100301.75
2023-05-06T23:55:31.894Z,100303.94
